createdAt,value
2023-10-20T00:00:43.247Z,90.90
2023-10-20T00:03:10.682Z,90.90
2023-10-20T00:05:38.434Z,90.70
2023-10-20T00:08:05.653Z,90.40
2023-10-20T00:10:36.591Z,90.40
2023-10-20T00:13:05.714Z,90.60
2023-10-20T00:15:34.319Z,90.40
2023-10-20T00:18:01.790Z,90.60
2023-10-20T00:20:29.707Z,91.00
2023-10-20T00:22:59.308Z,91.10
2023-10-20T00:25:26.023Z,91.00
2023-10-20T00:27:52.762Z,90.80
2023-10-20T00:30:19.534Z,91.20
2023-10-20T00:32:46.698Z,90.90
2023-10-20T00:35:16.375Z,91.00
2023-10-20T00:37:43.447Z,91.20
2023-10-20T00:40:11.833Z,91.30
2023-10-20T00:42:39.147Z,91.10
2023-10-20T00:45:07.573Z,91.00
2023-10-20T00:47:37.124Z,90.80
2023-10-20T00:50:05.736Z,90.70
2023-10-20T00:52:34.274Z,90.80
2023-10-20T00:55:01.003Z,91.00
2023-10-20T00:57:27.899Z,91.10
2023-10-20T00:59:54.741Z,91.30
2023-10-20T01:02:21.560Z,91.40
2023-10-20T01:04:49.418Z,91.60
2023-10-20T01:07:16.152Z,91.50
2023-10-20T01:09:45.940Z,91.40
2023-10-20T01:12:12.576Z,91.50
2023-10-20T01:14:39.736Z,91.10
2023-10-20T01:17:06.604Z,91.40
2023-10-20T01:19:33.819Z,91.60
2023-10-20T01:22:00.911Z,91.50
2023-10-20T01:24:28.050Z,91.40
2023-10-20T01:26:54.680Z,91.10
2023-10-20T01:29:21.594Z,90.90
2023-10-20T01:31:48.258Z,90.60
2023-10-20T01:34:15.056Z,90.90
2023-10-20T01:36:42.533Z,90.90
2023-10-20T01:39:09.417Z,91.00
2023-10-20T01:41:36.166Z,90.80
2023-10-20T01:44:03.376Z,90.80
2023-10-20T01:46:30.412Z,90.70
2023-10-20T01:48:57.132Z,91.00
2023-10-20T01:51:23.773Z,91.10
2023-10-20T01:53:50.476Z,91.10
2023-10-20T01:56:17.312Z,91.50
2023-10-20T01:58:44.029Z,91.10
2023-10-20T02:01:11.382Z,90.80
2023-10-20T02:03:38.394Z,90.60
2023-10-20T02:06:05.995Z,90.60
2023-10-20T02:08:33.453Z,90.50
2023-10-20T02:11:01.154Z,90.40
2023-10-20T02:13:28.240Z,90.40
2023-10-20T02:15:55.024Z,90.70
2023-10-20T02:18:21.796Z,90.90
2023-10-20T02:21:04.701Z,91.10
2023-10-20T02:23:44.228Z,91.00
2023-10-20T02:26:10.942Z,90.80
2023-10-20T02:28:38.090Z,90.70
2023-10-20T02:31:18.354Z,90.60
2023-10-20T02:33:45.591Z,91.80
2023-10-20T02:36:22.224Z,92.60
2023-10-20T02:38:53.045Z,92.50
2023-10-20T02:41:20.476Z,92.30
2023-10-20T02:43:47.125Z,92.50
2023-10-20T02:46:13.894Z,92.70
2023-10-20T02:48:41.143Z,92.10
2023-10-20T02:51:15.635Z,92.40
2023-10-20T02:53:42.641Z,92.60
2023-10-20T02:56:17.244Z,94.10
2023-10-20T02:58:44.868Z,94.20
2023-10-20T03:01:14.351Z,93.80
2023-10-20T03:03:41.378Z,93.60
2023-10-20T03:06:08.290Z,93.30
2023-10-20T03:08:38.065Z,93.20
2023-10-20T03:11:06.512Z,93.10
2023-10-20T03:13:33.602Z,93.00
2023-10-20T03:16:00.573Z,93.90
2023-10-20T03:18:27.332Z,93.70
2023-10-20T03:20:54.086Z,93.40
2023-10-20T03:23:21.747Z,93.50
2023-10-20T03:25:48.932Z,93.80
2023-10-20T03:28:15.551Z,93.60
2023-10-20T03:30:47.601Z,93.70
2023-10-20T03:33:17.688Z,93.60
2023-10-20T03:35:44.734Z,93.40
2023-10-20T03:38:11.642Z,93.50
2023-10-20T03:40:42.180Z,93.60
2023-10-20T03:43:09.968Z,93.50
2023-10-20T03:45:42.707Z,94.00
2023-10-20T03:48:10.585Z,93.80
2023-10-20T03:50:42.974Z,94.20
2023-10-20T03:53:13.128Z,94.50
2023-10-20T03:55:40.024Z,94.20
2023-10-20T03:58:06.665Z,93.80
2023-10-20T04:00:36.561Z,93.70
2023-10-20T04:03:04.074Z,94.20
2023-10-20T04:05:31.334Z,94.00
2023-10-20T04:07:58.069Z,94.10
2023-10-20T04:10:24.833Z,94.30
2023-10-20T04:12:51.561Z,93.80
2023-10-20T04:15:20.442Z,93.60
2023-10-20T04:17:56.245Z,94.10
2023-10-20T04:20:24.920Z,94.00
2023-10-20T04:22:52.092Z,93.80
2023-10-20T04:25:24.869Z,93.90
2023-10-20T04:27:51.571Z,93.30
2023-10-20T04:30:37.966Z,93.60
2023-10-20T04:33:24.396Z,93.60
2023-10-20T04:36:10.140Z,93.00
2023-10-20T04:38:55.646Z,93.30
2023-10-20T04:41:41.109Z,93.50
2023-10-20T04:44:16.975Z,93.60
2023-10-20T04:47:03.859Z,93.70
2023-10-20T04:49:39.790Z,94.10
2023-10-20T04:52:07.114Z,94.30
2023-10-20T04:54:46.230Z,93.70
2023-10-20T04:57:25.370Z,93.70
2023-10-20T05:00:10.880Z,94.80
2023-10-20T05:02:47.299Z,95.00
2023-10-20T05:05:26.498Z,94.60
2023-10-20T05:08:04.781Z,94.80
2023-10-20T05:10:32.764Z,95.00
2023-10-20T05:12:59.739Z,95.30
2023-10-20T05:15:26.374Z,95.30
2023-10-20T05:17:53.606Z,95.50
2023-10-20T05:20:24.120Z,95.80
2023-10-20T05:22:51.369Z,95.60
2023-10-20T05:25:18.443Z,95.00
2023-10-20T05:27:45.478Z,94.90
2023-10-20T05:30:12.221Z,95.10
2023-10-20T05:32:39.449Z,94.90
2023-10-20T05:35:10.053Z,94.80
2023-10-20T05:37:36.791Z,94.60
2023-10-20T05:40:04.618Z,94.70
2023-10-20T05:42:32.122Z,94.60
2023-10-20T05:45:10.981Z,94.50
2023-10-20T05:47:39.165Z,94.60
2023-10-20T05:50:07.368Z,94.90
2023-10-20T05:52:36.634Z,94.70
2023-10-20T05:55:04.531Z,95.00
2023-10-20T05:57:34.348Z,95.50
2023-10-20T06:00:01.135Z,95.20
2023-10-20T06:02:33.237Z,95.00
2023-10-20T06:05:00.265Z,95.50
2023-10-20T06:07:28.487Z,94.40
2023-10-20T06:09:55.579Z,94.30
2023-10-20T06:12:22.236Z,94.40
2023-10-20T06:14:48.994Z,94.40
2023-10-20T06:17:19.107Z,93.90
2023-10-20T06:19:47.776Z,94.20
2023-10-20T06:22:14.471Z,93.80
2023-10-20T06:24:41.235Z,94.00
2023-10-20T06:27:07.855Z,93.40
2023-10-20T06:29:34.695Z,93.70
2023-10-20T06:32:20.171Z,93.80
2023-10-20T06:34:47.971Z,94.10
2023-10-20T06:37:23.669Z,94.20
2023-10-20T06:39:50.303Z,94.70
2023-10-20T06:42:17.798Z,95.10
2023-10-20T06:44:44.612Z,94.70
2023-10-20T06:47:12.293Z,94.30
2023-10-20T06:49:39.041Z,94.00
2023-10-20T06:52:05.918Z,93.90
2023-10-20T06:54:32.921Z,94.30
2023-10-20T06:57:00.490Z,94.10
2023-10-20T06:59:27.415Z,94.10
2023-10-20T07:01:58.614Z,93.70
2023-10-20T07:04:26.413Z,93.60
2023-10-20T07:06:54.169Z,93.30
2023-10-20T07:09:22.319Z,94.00
2023-10-20T07:11:49.398Z,94.20
2023-10-20T07:14:16.894Z,93.70
2023-10-20T07:16:43.504Z,93.60
2023-10-20T07:19:10.529Z,93.30
2023-10-20T07:21:37.245Z,93.00
2023-10-20T07:24:04.391Z,93.20
2023-10-20T07:26:31.428Z,93.50
2023-10-20T07:28:58.197Z,93.40
2023-10-20T07:31:27.288Z,93.30
2023-10-20T07:33:54.066Z,93.00
2023-10-20T07:36:21.237Z,92.90
2023-10-20T07:38:47.924Z,92.60
2023-10-20T07:41:15.409Z,92.70
2023-10-20T07:43:43.129Z,93.10
2023-10-20T07:46:17.294Z,92.80
2023-10-20T07:48:44.676Z,92.50
2023-10-20T07:51:11.413Z,92.30
2023-10-20T07:53:38.381Z,92.70
2023-10-20T07:56:05.486Z,92.50
2023-10-20T07:58:34.082Z,91.80
2023-10-20T08:01:01.849Z,91.90
2023-10-20T08:03:28.940Z,91.90
2023-10-20T08:05:56.175Z,91.20
2023-10-20T08:08:23.221Z,90.90
2023-10-20T08:10:50.997Z,90.70
2023-10-20T08:13:18.869Z,90.60
2023-10-20T08:15:45.736Z,90.40
2023-10-20T08:18:12.554Z,89.80
2023-10-20T08:20:40.266Z,89.20
2023-10-20T08:23:07.104Z,88.40
2023-10-20T08:25:38.099Z,87.50
2023-10-20T08:28:06.043Z,87.00
2023-10-20T08:30:32.764Z,86.90
2023-10-20T08:33:00.500Z,86.80
2023-10-20T08:35:28.826Z,86.40
2023-10-20T08:37:55.452Z,86.30
2023-10-20T08:40:22.081Z,86.40
2023-10-20T08:42:49.678Z,85.90
2023-10-20T08:45:16.985Z,85.30
2023-10-20T08:47:44.643Z,85.50
2023-10-20T08:50:17.254Z,85.50
2023-10-20T08:52:45.802Z,83.70
2023-10-20T08:55:12.553Z,80.20
2023-10-20T08:57:39.144Z,80.70
2023-10-20T09:00:08.410Z,81.30
2023-10-20T09:02:39.433Z,80.70
2023-10-20T09:05:07.849Z,79.50
2023-10-20T09:07:35.024Z,78.30
2023-10-20T09:10:02.123Z,78.10
2023-10-20T09:12:33.236Z,78.40
2023-10-20T09:14:59.904Z,77.30
2023-10-20T09:17:28.019Z,76.30
2023-10-20T09:20:06.215Z,75.50
2023-10-20T09:22:33.053Z,75.10
2023-10-20T09:24:59.717Z,74.30
2023-10-20T09:27:26.747Z,73.90
2023-10-20T09:29:57.283Z,73.50
2023-10-20T09:32:24.179Z,73.20
2023-10-20T09:34:52.392Z,72.80
2023-10-20T09:37:25.571Z,72.10
2023-10-20T09:39:58.499Z,71.50
2023-10-20T09:42:25.655Z,71.10
2023-10-20T09:45:07.511Z,70.50
2023-10-20T09:47:37.655Z,70.10
2023-10-20T09:50:06.573Z,69.70
2023-10-20T09:52:34.008Z,68.40
2023-10-20T09:55:01.692Z,68.00
2023-10-20T09:57:29.062Z,67.40
2023-10-20T09:59:55.823Z,65.70
2023-10-20T10:02:30.109Z,63.80
2023-10-20T10:04:58.057Z,59.40
2023-10-20T10:07:29.820Z,57.60
2023-10-20T10:09:58.020Z,58.80
2023-10-20T10:12:26.834Z,60.30
2023-10-20T10:15:09.227Z,61.00
2023-10-20T10:17:50.219Z,61.40
2023-10-20T10:20:27.405Z,61.50
2023-10-20T10:23:01.417Z,61.80
2023-10-20T10:25:36.243Z,62.20
2023-10-20T10:28:10.071Z,61.70
2023-10-20T10:30:38.903Z,61.20
2023-10-20T10:33:11.180Z,60.50
2023-10-20T10:35:41.914Z,59.50
2023-10-20T10:38:21.226Z,55.90
2023-10-20T10:40:49.515Z,54.00
2023-10-20T10:43:23.831Z,51.10
2023-10-20T10:45:54.883Z,49.90
2023-10-20T10:48:25.857Z,49.40
2023-10-20T10:50:52.693Z,48.70
2023-10-20T10:53:19.435Z,51.70
2023-10-20T10:55:46.499Z,53.00
2023-10-20T10:58:14.360Z,53.80
2023-10-20T11:00:45.667Z,54.60
2023-10-20T11:03:15.185Z,54.50
2023-10-20T11:05:42.974Z,54.80
2023-10-20T11:08:14.817Z,54.50
2023-10-20T11:10:44.500Z,58.90
2023-10-20T11:13:13.198Z,60.20
2023-10-20T11:15:40.978Z,60.70
2023-10-20T11:18:09.297Z,60.20
2023-10-20T11:20:42.397Z,59.70
2023-10-20T11:23:10.221Z,58.90
2023-10-20T11:25:38.260Z,57.00
2023-10-20T11:28:05.558Z,53.90
2023-10-20T11:30:36.046Z,48.80
2023-10-20T11:33:04.859Z,47.20
2023-10-20T11:35:31.785Z,45.70
2023-10-20T11:37:59.412Z,42.30
2023-10-20T11:40:29.770Z,40.60
2023-10-20T11:42:57.349Z,44.30
2023-10-20T11:45:24.449Z,49.70
2023-10-20T11:47:52.170Z,50.70
2023-10-20T11:50:24.515Z,50.40
2023-10-20T11:52:51.589Z,49.40
2023-10-20T11:55:19.293Z,51.30
2023-10-20T11:57:45.983Z,52.80
2023-10-20T12:00:14.884Z,48.90
2023-10-20T12:02:42.233Z,48.10
2023-10-20T12:05:10.130Z,44.70
2023-10-20T12:07:37.555Z,45.10
2023-10-20T12:10:08.101Z,45.50
2023-10-20T12:12:35.636Z,46.40
2023-10-20T12:15:03.202Z,50.80
2023-10-20T12:17:30.034Z,51.40
2023-10-20T12:19:56.869Z,51.80
2023-10-20T12:22:24.221Z,51.50
2023-10-20T12:24:51.384Z,52.80
2023-10-20T12:27:18.623Z,53.70
2023-10-20T12:29:45.301Z,54.60
2023-10-20T12:32:13.696Z,55.60
2023-10-20T12:34:40.908Z,56.30
2023-10-20T12:37:07.582Z,56.60
2023-10-20T12:39:34.555Z,57.60
2023-10-20T12:42:04.427Z,58.20
2023-10-20T12:44:31.333Z,58.30
2023-10-20T12:46:58.391Z,58.70
2023-10-20T12:49:25.201Z,58.40
2023-10-20T12:51:52.070Z,58.80
2023-10-20T12:54:18.786Z,58.30
2023-10-20T12:56:45.471Z,58.50
2023-10-20T12:59:12.124Z,59.10
2023-10-20T13:01:38.816Z,59.00
2023-10-20T13:04:05.977Z,59.50
2023-10-20T13:06:37.266Z,60.00
2023-10-20T13:09:09.397Z,60.50
2023-10-20T13:11:36.131Z,60.80
2023-10-20T13:14:02.844Z,60.90
2023-10-20T13:16:30.695Z,61.00
2023-10-20T13:18:57.394Z,61.00
2023-10-20T13:21:25.395Z,62.00
2023-10-20T13:23:54.329Z,62.10
2023-10-20T13:26:21.412Z,62.30
2023-10-20T13:28:48.086Z,62.00
2023-10-20T13:31:17.666Z,62.50
2023-10-20T13:33:45.254Z,62.10
2023-10-20T13:36:12.056Z,61.80
2023-10-20T13:38:39.128Z,62.00
2023-10-20T13:41:06.542Z,62.00
2023-10-20T13:43:33.682Z,61.60
2023-10-20T13:46:00.602Z,61.40
2023-10-20T13:48:27.561Z,61.20
2023-10-20T13:50:54.451Z,60.80
2023-10-20T13:53:21.408Z,62.00
2023-10-20T13:55:48.796Z,59.60
2023-10-20T13:58:15.847Z,60.10
2023-10-20T14:00:42.556Z,57.80
2023-10-20T14:03:09.485Z,54.80
2023-10-20T14:05:36.397Z,52.30
2023-10-20T14:08:03.213Z,56.50
2023-10-20T14:10:30.258Z,58.40
2023-10-20T14:12:57.243Z,60.00
2023-10-20T14:15:24.548Z,60.10
2023-10-20T14:17:51.722Z,61.00
2023-10-20T14:20:18.861Z,61.70
2023-10-20T14:22:45.845Z,61.60
2023-10-20T14:25:12.696Z,61.20
2023-10-20T14:27:40.584Z,62.10
2023-10-20T14:30:08.161Z,61.60
2023-10-20T14:32:35.234Z,62.20
2023-10-20T14:35:02.287Z,62.90
2023-10-20T14:37:28.945Z,63.30
2023-10-20T14:39:57.601Z,62.80
2023-10-20T14:42:24.674Z,63.10
2023-10-20T14:44:51.537Z,63.10
2023-10-20T14:47:18.883Z,63.10
2023-10-20T14:49:45.516Z,63.40
2023-10-20T14:52:13.507Z,62.10
2023-10-20T14:54:41.980Z,61.40
2023-10-20T14:57:10.096Z,57.30
2023-10-20T14:59:37.338Z,54.80
2023-10-20T15:02:05.047Z,55.90
2023-10-20T15:04:34.051Z,55.00
2023-10-20T15:07:01.094Z,52.50
2023-10-20T15:09:28.149Z,51.90
2023-10-20T15:11:54.952Z,52.00
2023-10-20T15:14:21.886Z,49.90
2023-10-20T15:16:48.601Z,52.30
2023-10-20T15:19:15.359Z,55.30
2023-10-20T15:21:42.030Z,55.70
2023-10-20T15:24:10.834Z,57.30
2023-10-20T15:26:37.583Z,56.90
2023-10-20T15:29:04.890Z,57.40
2023-10-20T15:31:32.096Z,58.00
2023-10-20T15:33:59.444Z,59.30
2023-10-20T15:36:28.424Z,59.90
2023-10-20T15:38:55.196Z,60.60
2023-10-20T15:41:22.924Z,61.40
2023-10-20T15:43:49.752Z,62.10
2023-10-20T15:46:16.574Z,62.20
2023-10-20T15:48:43.622Z,62.50
2023-10-20T15:51:10.523Z,62.40
2023-10-20T15:53:37.288Z,63.10
2023-10-20T15:56:04.844Z,63.30
2023-10-20T15:58:31.954Z,63.30
2023-10-20T16:01:00.699Z,63.80
2023-10-20T16:03:27.799Z,63.90
2023-10-20T16:05:54.810Z,64.60
2023-10-20T16:08:21.841Z,65.00
2023-10-20T16:10:49.077Z,64.90
2023-10-20T16:13:15.924Z,65.30
2023-10-20T16:15:43.675Z,65.40
2023-10-20T16:18:10.500Z,65.20
2023-10-20T16:20:37.414Z,65.40
2023-10-20T16:23:04.159Z,64.80
2023-10-20T16:25:30.890Z,65.40
2023-10-20T16:27:59.436Z,65.70
2023-10-20T16:30:26.620Z,65.80
2023-10-20T16:32:53.372Z,65.70
2023-10-20T16:35:20.107Z,66.10
2023-10-20T16:37:49.721Z,65.90
2023-10-20T16:40:16.704Z,65.90
2023-10-20T16:42:44.197Z,66.30
2023-10-20T16:45:11.567Z,66.20
2023-10-20T16:47:39.515Z,66.40
2023-10-20T16:50:07.067Z,66.60
2023-10-20T16:52:36.392Z,66.80
2023-10-20T16:55:03.027Z,67.10
2023-10-20T16:57:29.869Z,67.30
2023-10-20T16:59:56.679Z,67.50
2023-10-20T17:02:23.407Z,67.50
2023-10-20T17:04:50.059Z,67.60
2023-10-20T17:07:16.798Z,67.50
2023-10-20T17:09:43.481Z,67.80
2023-10-20T17:12:10.230Z,68.30
2023-10-20T17:14:36.947Z,68.30
2023-10-20T17:17:03.669Z,68.50
2023-10-20T17:19:30.314Z,68.70
2023-10-20T17:21:57.031Z,68.80
2023-10-20T17:24:23.807Z,68.70
2023-10-20T17:26:50.585Z,68.40
2023-10-20T17:29:17.320Z,68.60
2023-10-20T17:31:44.013Z,69.10
2023-10-20T17:34:10.775Z,69.10
2023-10-20T17:36:37.463Z,69.40
2023-10-20T17:39:07.184Z,69.40
2023-10-20T17:41:35.364Z,69.00
2023-10-20T17:44:02.249Z,69.10
2023-10-20T17:46:29.195Z,69.30
2023-10-20T17:48:56.095Z,69.60
2023-10-20T17:51:23.558Z,69.50
2023-10-20T17:53:50.274Z,69.10
2023-10-20T17:56:16.949Z,69.20
2023-10-20T17:58:43.608Z,69.20
2023-10-20T18:01:11.822Z,69.50
2023-10-20T18:03:46.029Z,69.30
2023-10-20T18:06:16.211Z,69.60
2023-10-20T18:08:47.157Z,69.70
2023-10-20T18:11:15.640Z,69.80
2023-10-20T18:13:44.495Z,69.80
2023-10-20T18:16:16.014Z,69.70
2023-10-20T18:18:45.714Z,70.00
2023-10-20T18:21:13.333Z,70.30
2023-10-20T18:23:42.903Z,70.60
2023-10-20T18:26:09.566Z,70.70
2023-10-20T18:28:36.617Z,71.00
2023-10-20T18:31:13.972Z,70.90
2023-10-20T18:33:40.752Z,70.90
2023-10-20T18:36:07.964Z,70.90
2023-10-20T18:38:36.237Z,70.70
2023-10-20T18:41:05.147Z,70.60
2023-10-20T18:43:38.134Z,70.80
2023-10-20T18:46:06.599Z,70.90
2023-10-20T18:48:34.847Z,70.90
2023-10-20T18:59:17.762Z,70.90
2023-10-20T19:07:01.851Z,70.50
2023-10-20T19:21:35.243Z,70.20
2023-10-20T19:37:01.481Z,69.80
2023-10-20T20:13:31.212Z,70.50
2023-10-20T20:29:40.567Z,70.90
2023-10-20T20:32:07.878Z,71.00
2023-10-20T20:34:35.321Z,71.00
2023-10-20T20:37:02.025Z,71.40
2023-10-20T20:39:28.957Z,71.50
2023-10-20T20:41:55.689Z,71.50
2023-10-20T20:44:22.547Z,71.40
2023-10-20T20:46:49.188Z,71.50
2023-10-20T20:49:15.879Z,71.90
2023-10-20T20:51:45.787Z,72.00
2023-10-20T20:54:12.500Z,72.10
2023-10-20T20:56:39.359Z,72.20
2023-10-20T20:59:06.067Z,72.70
2023-10-20T21:01:32.727Z,73.10
2023-10-20T21:04:02.356Z,73.30
2023-10-20T21:06:29.207Z,73.50
2023-10-20T21:08:55.948Z,73.60
2023-10-20T21:11:22.654Z,73.80
2023-10-20T21:13:50.950Z,73.80
2023-10-20T21:16:18.108Z,74.00
2023-10-20T21:18:45.017Z,74.20
2023-10-20T21:21:14.851Z,74.50
2023-10-20T21:23:45.453Z,75.00
2023-10-20T21:26:13.416Z,75.50
2023-10-20T21:28:40.135Z,75.80
2023-10-20T21:31:07.973Z,76.00
2023-10-20T21:33:34.858Z,76.30
2023-10-20T21:36:01.617Z,76.40
2023-10-20T21:38:28.330Z,76.50
2023-10-20T21:40:58.057Z,76.80
2023-10-20T21:43:24.760Z,77.20
2023-10-20T21:45:56.619Z,77.60
2023-10-20T21:48:27.514Z,78.10
2023-10-20T21:51:04.924Z,78.40
2023-10-20T21:53:34.105Z,78.70
2023-10-20T21:56:06.347Z,78.80
2023-10-20T21:58:33.537Z,78.90
2023-10-20T22:01:00.352Z,79.00
2023-10-20T22:03:30.322Z,79.20
2023-10-20T22:05:57.238Z,79.00
2023-10-20T22:08:24.276Z,79.30
2023-10-20T22:10:51.547Z,79.40
2023-10-20T22:13:18.403Z,79.40
2023-10-20T22:15:45.181Z,79.60
2023-10-20T22:18:12.237Z,79.70
2023-10-20T22:20:39.470Z,79.90
2023-10-20T22:23:06.165Z,79.80
2023-10-20T22:25:32.972Z,79.70
2023-10-20T22:27:59.687Z,79.70
2023-10-20T22:30:26.846Z,79.60
2023-10-20T22:32:53.983Z,79.60
2023-10-20T22:35:21.348Z,79.50
2023-10-20T22:37:49.517Z,79.50
2023-10-20T22:40:16.875Z,79.70
2023-10-20T22:42:43.603Z,79.80
2023-10-20T22:45:10.510Z,79.60
2023-10-20T22:47:37.215Z,79.30
2023-10-20T22:50:06.599Z,79.30
2023-10-20T22:52:34.959Z,79.30
2023-10-20T22:55:02.350Z,79.10
2023-10-20T22:57:29.040Z,79.00
2023-10-20T22:59:55.757Z,78.70
2023-10-20T23:02:22.478Z,78.80
2023-10-20T23:04:49.431Z,78.80
2023-10-20T23:07:16.131Z,78.90
2023-10-20T23:09:43.093Z,78.80
2023-10-20T23:12:10.074Z,78.90
2023-10-20T23:14:36.811Z,78.80
2023-10-20T23:17:03.695Z,78.80
2023-10-20T23:19:30.361Z,78.50
2023-10-20T23:21:56.999Z,78.40
2023-10-20T23:24:23.702Z,78.50
2023-10-20T23:26:53.288Z,78.30
2023-10-20T23:29:20.399Z,78.40
2023-10-20T23:31:47.095Z,78.40
2023-10-20T23:34:13.901Z,78.30
2023-10-20T23:36:41.727Z,78.10
2023-10-20T23:39:08.521Z,78.00
2023-10-20T23:41:35.219Z,78.00
2023-10-20T23:44:01.901Z,78.00
2023-10-20T23:46:28.626Z,77.90
2023-10-20T23:48:55.349Z,78.00
2023-10-20T23:51:22.156Z,78.10
2023-10-20T23:53:48.977Z,78.20
2023-10-20T23:56:15.754Z,78.30
2023-10-20T23:58:42.386Z,77.80
